Latest Coastal Weather Observations for Kingscote

IDS60701

Issued at 10:11 am CST Saturday 20 April 2024 (issued every 10 minutes, with the page automatically refreshed every 10 minutes)

About coastal observations | Map of coastal stations | Coastal observations for SA | Marine services | Other Formats
Station Details ID: 022841 Name: KINGSCOTE AERO Lat: -35.71 Lon: 137.52 Height: 6.23 m
Data from the previous 72 hours. | See also: Recent months at Kingscote
Date/Time
CST
Wind Sea
Height
m
Swell Vis
km
Cloud Weather Temp
°C
Press
MSL
hPa
Rain since
9am
mm
Dir  Spd
kts
Gust
kts
Height
m
Period
s
Dir
20/10:00am SE 7 10 - - - - 10 Cloudy - 16.3 1032.6 0.0
20/09:30am ESE 8 10 - - - - 10 Cloudy - 16.1 1032.7 0.0
20/09:00am SE 8 12 - - - - 10 Cloudy - 15.4 1032.6 0.2
20/08:30am ESE 9 15 - - - - 10 Cloudy - 15.1 1032.5 0.2
20/08:00am SE 9 11 - - - - 10 Cloudy - 14.7 1032.3 0.2
20/07:30am SE 6 8 - - - - 10 Cloudy - 14.4 1031.8 0.2
20/07:00am SE 5 6 - - - - 10 Cloudy - 14.1 1031.4 0.2
20/06:30am SE 4 6 - - - - 10 Cloudy - 13.8 1031.2 0.2
20/06:00am SE 5 7 - - - - 10 Cloudy - 14.2 1031.1 0.2
20/05:30am SE 5 7 - - - - 10 Cloudy - 14.2 1030.9 0.2
20/05:00am SSE 4 6 - - - - 10 Cloudy - 13.7 1030.8 0.2
20/04:30am SE 4 5 - - - - 10 Cloudy - 13.8 1030.6 0.2
20/04:00am SE 5 6 - - - - 10 Cloudy - 14.0 1030.3 0.2
20/03:30am SSE 6 8 - - - - 10 Cloudy - 14.2 1030.1 0.2
20/03:00am SE 7 9 - - - - 10 Mostly cloudy - 14.2 1030.0 0.2
20/02:30am SE 7 9 - - - - 10 Cloudy - 14.5 1029.9 0.2
20/02:00am SE 7 8 - - - - 10 Cloudy - 14.4 1030.1 0.2
20/01:30am ESE 8 10 - - - - 10 Cloudy - 14.5 1030.3 0.2
20/01:00am SE 8 11 - - - - 10 Cloudy - 14.6 1030.5 0.2
20/12:30am SE 8 11 - - - - 10 Cloudy - 14.9 1030.5 0.2
20/12:00am SE 8 10 - - - - 10 Cloudy - 14.9 1030.4 0.2
 
Date/Time
CST
Wind Sea
Height
m
Swell Vis
km
Cloud Weather Temp
°C
Press
MSL
hPa
Rain since
9am
mm
Dir  Spd
kts
Gust
kts
Height
m
Period
s
Dir
19/11:30pm ESE 12 18 - - - - 10 Cloudy - 15.1 1030.4 0.2
19/11:00pm SSE 11 17 - - - - 10 Cloudy - 15.3 1030.5 0.2
19/10:30pm SE 14 18 - - - - 10 Cloudy - 15.3 1030.6 0.2
19/10:00pm SSE 11 16 - - - - 10 Cloudy - 15.2 1030.6 0.2
19/09:30pm SSE 11 16 - - - - 10 Cloudy - 15.3 1030.6 0.2
19/09:00pm SSE 13 19 - - - - 10 Cloudy - 15.3 1030.4 0.2
19/08:30pm SSE 11 15 - - - - 10 Cloudy - 15.1 1030.1 0.2
19/08:00pm SSE 13 18 - - - - 10 Cloudy - 15.0 1030.0 0.2
19/07:30pm SSE 10 17 - - - - 10 Cloudy - 15.0 1029.9 0.2
19/07:00pm SSE 9 12 - - - - 10 Cloudy - 14.7 1029.6 0.2
19/06:30pm SSE 11 16 - - - - 10 Cloudy - 15.0 1029.1 0.2
19/06:00pm SSE 15 21 - - - - 10 Cloudy - 15.0 1028.8 0.2
19/05:30pm SSE 13 19 - - - - 10 Cloudy - 15.4 1028.6 0.2
19/05:00pm SSE 14 17 - - - - 10 Cloudy - 15.8 1028.3 0.2
19/04:30pm SSE 17 21 - - - - 10 Cloudy - 16.0 1027.9 0.2
19/04:00pm SSE 16 21 - - - - 10 Partly cloudy - 16.7 1027.7 0.2
19/03:30pm SSE 16 22 - - - - 10 Partly cloudy - 18.0 1027.6 0.2
19/03:00pm SSE 17 22 - - - - 10 Mostly cloudy - 17.5 1027.6 0.2
19/02:30pm SSE 17 25 - - - - 10 Partly cloudy - 17.3 1027.4 0.2
19/02:00pm SSE 15 21 - - - - 10 Partly cloudy - 17.9 1027.2 0.2
19/01:30pm SSE 16 22 - - - - 10 Cloudy - 18.3 1027.3 0.2
19/01:00pm SSE 13 19 - - - - 10 Partly cloudy - 18.5 1027.5 0.0
19/12:30pm SSE 15 19 - - - - 10 Cloudy - 17.5 1027.6 0.0
19/12:00pm SSE 17 23 - - - - 10 Cloudy - 17.3 1027.8 0.0
19/11:30am SSE 15 19 - - - - 10 Partly cloudy - 17.2 1027.7 0.0
19/11:00am SSE 14 22 - - - - 10 Partly cloudy - 16.6 1027.7 0.0
19/10:30am SE 15 19 - - - - 10 Partly cloudy - 16.5 1027.4 0.0
19/10:00am SE 14 17 - - - - 10 Partly cloudy - 16.3 1027.0 0.0
19/09:30am SSE 11 15 - - - - 10 Partly cloudy - 15.5 1026.7 0.0
19/09:00am SE 15 21 - - - - 10 Cloudy - 14.9 1026.9 0.4
19/08:56am SE 13 21 - - - - 10 Partly cloudy - 15.1 1026.8 0.4
19/08:30am S 8 11 - - - - 10 Partly cloudy - 14.8 1026.4 0.4
19/08:00am S 9 12 - - - - 10 Cloudy - 13.7 1026.2 0.4
19/07:30am S 7 8 - - - - 10 Partly cloudy - 12.5 1025.7 0.4
19/07:00am S 7 8 - - - - 10 Partly cloudy - 11.9 1025.5 0.4
19/06:30am S 11 17 - - - - 10 Partly cloudy - 12.5 1025.3 0.4
19/06:00am S 9 12 - - - - 10 Partly cloudy - 13.0 1025.2 0.4
19/05:30am S 11 16 - - - - 10 Partly cloudy - 13.4 1024.7 0.4
19/05:00am S 9 15 - - - - 10 Partly cloudy - 13.1 1024.2 0.4
19/04:30am S 13 16 - - - - 10 Partly cloudy - 13.7 1024.1 0.4
19/04:00am SSW 10 13 - - - - 10 Partly cloudy - 13.3 1023.6 0.4
19/03:30am SSW 13 16 - - - - 10 - - 13.3 1023.4 0.4
19/03:00am S 10 13 - - - - 10 Cloudy - 13.6 1023.6 0.4
19/02:30am S 10 14 - - - - 10 Partly cloudy - 14.0 1023.9 0.4
19/02:00am S 10 13 - - - - 10 Cloudy - 14.2 1023.6 0.4
19/01:30am S 13 18 - - - - 10 Partly cloudy - 14.2 1023.8 0.4
19/01:25am S 13 18 - - - - 10 Partly cloudy - 14.2 1023.8 0.4
19/01:19am S 11 18 - - - - 10 Partly cloudy - 14.2 1023.7 0.4
19/01:05am S 11 16 - - - - 5 Partly cloudy - 14.6 1023.7 0.4
19/01:00am S 10 16 - - - - 10 Partly cloudy - 14.7 1023.7 0.4
19/12:42am S 14 17 - - - - 6 Partly cloudy - 14.8 1023.6 0.4
19/12:30am SSW 12 18 - - - - 4 Partly cloudy - 15.1 1023.6 0.4
19/12:22am SSW 10 14 - - - - 5 Partly cloudy - 15.4 1023.6 0.2
19/12:20am SW 10 13 - - - - 10 Partly cloudy - 15.3 1023.6 0.2
19/12:08am SW 10 14 - - - - 5 Partly cloudy - 15.2 1023.4 0.2
19/12:00am SW 9 11 - - - - 10 Cloudy Showers 15.3 1023.5 0.2
 
Date/Time
CST
Wind Sea
Height
m
Swell Vis
km
Cloud Weather Temp
°C
Press
MSL
hPa
Rain since
9am
mm
Dir  Spd
kts
Gust
kts
Height
m
Period
s
Dir
18/11:58pm SW 9 12 - - - - 10 Partly cloudy - 15.2 1023.5 0.2
18/11:31pm WSW 8 11 - - - - 5 Partly cloudy - 15.4 1023.6 0.0
18/11:30pm WSW 8 11 - - - - 6 Partly cloudy - 15.4 1023.6 0.0
18/11:12pm WSW 8 12 - - - - 10 Partly cloudy - 15.6 1023.7 0.0
18/11:00pm WSW 8 11 - - - - 10 Partly cloudy - 15.6 1023.8 0.0
18/10:54pm WSW 8 11 - - - - 10 Partly cloudy - 15.7 1023.9 0.0
18/10:30pm WSW 8 10 - - - - 10 Partly cloudy - 15.4 1024.2 0.0
18/10:00pm WSW 9 11 - - - - 10 Cloudy - 15.3 1024.3 0.0
18/09:30pm WSW 10 13 - - - - 10 Partly cloudy - 15.4 1024.6 0.0
18/09:00pm WSW 9 12 - - - - 10 Cloudy - 15.2 1024.5 0.0
18/08:30pm SW 11 16 - - - - 10 Cloudy - 15.0 1024.6 0.0
18/08:23pm WSW 13 19 - - - - 10 Cloudy - 15.0 1024.6 0.0
18/08:00pm WSW 12 19 - - - - 10 Cloudy - 15.6 1024.6 0.0
18/07:30pm SW 12 18 - - - - 10 Cloudy - 16.0 1024.5 0.0
18/07:00pm WSW 12 16 - - - - 10 Cloudy - 15.7 1024.4 0.0
18/06:30pm SW 13 18 - - - - 10 Cloudy - 16.1 1024.3 0.0
18/06:00pm SW 12 17 - - - - 10 Cloudy - 16.3 1024.3 0.0
18/05:30pm SW 14 19 - - - - 10 Partly cloudy - 16.6 1024.3 0.0
18/05:00pm SW 14 18 - - - - 10 Partly cloudy - 17.1 1024.4 0.0
18/04:30pm SW 15 20 - - - - 10 Partly cloudy - 17.2 1024.6 0.0
18/04:00pm SW 15 21 - - - - 10 Partly cloudy - 18.0 1024.7 0.0
18/03:30pm SW 17 24 - - - - 10 Cloudy - 17.7 1024.9 0.0
18/03:00pm SW 18 22 - - - - 10 Cloudy - 17.7 1025.0 0.0
18/02:30pm SW 14 19 - - - - 10 Partly cloudy - 18.1 1025.1 0.0
18/02:00pm SW 17 23 - - - - 10 Partly cloudy - 17.1 1025.4 0.0
18/01:30pm SW 13 18 - - - - 10 Partly cloudy - 18.5 1025.5 0.0
18/01:00pm SW 14 21 - - - - 10 Partly cloudy - 18.6 1025.8 0.0
18/12:52pm SW 14 21 - - - - 10 Partly cloudy - 18.6 1025.9 0.0
18/12:30pm SW 8 11 - - - - 10 Partly cloudy - 17.8 1026.4 0.0
18/12:00pm SW 16 23 - - - - 10 Cloudy - 17.6 1026.8 0.0
18/11:30am SW 13 17 - - - - 10 Cloudy - 19.4 1026.9 0.0
18/11:00am SW 13 19 - - - - 10 Partly cloudy - 18.6 1027.2 0.0
18/10:30am SW 13 17 - - - - 10 Cloudy - 17.8 1027.4 0.0
18/10:00am W 7 10 - - - - 10 Cloudy - 17.2 1027.5 0.0
18/09:30am W 7 10 - - - - 10 Cloudy - 16.8 1027.6 0.0
18/09:00am W 6 9 - - - - 10 Cloudy - 15.4 1027.9 0.0
18/08:30am W 3 5 - - - - 10 Cloudy - 14.5 1028.0 0.0
18/08:00am WNW 4 5 - - - - 10 Cloudy - 13.9 1028.0 0.0
18/07:30am W 5 6 - - - - 10 Cloudy - 13.4 1027.7 0.0
18/07:00am W 5 6 - - - - 10 Cloudy - 13.0 1027.4 0.0
18/06:30am W 3 5 - - - - 10 Cloudy - 12.9 1027.4 0.0
18/06:00am W 4 5 - - - - 10 Cloudy - 13.1 1027.4 0.0
18/05:30am SW 6 8 - - - - 10 Partly cloudy - 13.1 1027.4 0.0
18/05:00am WNW 4 4 - - - - 10 Cloudy - 12.6 1027.2 0.0
18/04:30am SW 4 5 - - - - 10 Cloudy - 12.8 1026.9 0.0
18/04:00am CALM 0 1 - - - - 10 Cloudy - 12.6 1027.0 0.0
18/03:30am WSW 5 6 - - - - 10 Cloudy - 12.5 1027.2 0.0
18/03:00am CALM 0 0 - - - - 10 Cloudy - 12.7 1027.3 0.0
18/02:30am SSE 3 4 - - - - 10 Cloudy - 12.9 1027.6 0.0
18/02:00am S 3 5 - - - - 10 Cloudy - 13.0 1028.0 0.0
18/01:30am S 4 5 - - - - 10 Cloudy - 13.2 1028.4 0.0
18/01:00am SSW 3 4 - - - - 10 Cloudy - 13.1 1028.3 0.0
18/12:30am SSW 6 8 - - - - 10 Cloudy - 13.6 1028.4 0.0
18/12:00am SSW 6 7 - - - - 10 Cloudy - 13.2 1028.5 0.0
 
Date/Time
CST
Wind Sea
Height
m
Swell Vis
km
Cloud Weather Temp
°C
Press
MSL
hPa
Rain since
9am
mm
Dir  Spd
kts
Gust
kts
Height
m
Period
s
Dir
17/11:30pm SSW 5 6 - - - - 10 Cloudy - 12.5 1028.6 0.0
17/11:00pm SSW 4 5 - - - - 10 Cloudy - 11.8 1028.7 0.0
17/10:30pm SW 5 7 - - - - 10 Cloudy - 11.4 1028.9 0.0
17/10:00pm SSW 4 5 - - - - 10 Partly cloudy - 9.9 1029.2 0.0
17/09:30pm SSW 5 6 - - - - 10 Partly cloudy - 9.2 1029.3 0.0
17/09:00pm SSW 5 5 - - - - 10 - - 9.1 1029.1 0.0
17/08:30pm SW 4 5 - - - - 10 Partly cloudy - 10.0 1029.1 0.0
17/08:00pm SSW 5 6 - - - - 10 - - 10.7 1029.1 0.0
17/07:30pm S 5 6 - - - - 10 Partly cloudy - 11.7 1028.9 0.0
17/07:00pm S 7 10 - - - - 10 Partly cloudy - 13.2 1028.7 0.0
17/06:30pm S 8 9 - - - - 10 - - 13.3 1028.3 0.0
17/06:00pm S 8 9 - - - - 10 Partly cloudy - 14.6 1028.0 0.0
17/05:30pm SSE 10 13 - - - - 10 Partly cloudy - 15.5 1028.0 0.0
17/05:00pm SSE 11 15 - - - - 10 Partly cloudy - 15.7 1027.7 0.0
17/04:30pm SSE 14 20 - - - - 10 Partly cloudy - 16.7 1027.5 0.0
17/04:00pm SSE 13 17 - - - - 10 Partly cloudy - 16.8 1027.3 0.0
17/03:30pm SSE 13 18 - - - - 10 Partly cloudy - 18.3 1027.6 0.0
17/03:00pm SSE 12 17 - - - - 10 Partly cloudy - 18.1 1027.6 0.0
17/02:30pm SSE 12 17 - - - - 10 Partly cloudy - 18.7 1027.7 0.0
17/02:00pm SSE 11 15 - - - - 10 Partly cloudy - 19.1 1027.8 0.0
17/01:30pm SE 15 22 - - - - 10 Partly cloudy - 18.6 1028.0 0.0
17/01:00pm SSE 11 16 - - - - 10 Partly cloudy - 18.8 1028.4 0.0
17/12:30pm SSE 11 15 - - - - 10 Partly cloudy - 19.1 1028.8 0.0
17/12:00pm SE 12 17 - - - - 10 Cloudy - 18.1 1029.2 0.0
17/11:30am SSE 11 15 - - - - 10 Partly cloudy - 17.5 1029.5 0.0
17/11:00am SSE 10 13 - - - - 10 Partly cloudy - 17.3 1029.8 0.0
17/10:30am SSE 11 15 - - - - 10 Partly cloudy - 17.6 1029.8 0.0

Other formats

Comma delimited format used in spreadsheet applications
http://www.bom.gov.au/fwo/IDS60701/IDS60701.95807.axf

JavaScript Object Notation format (JSON) in row-major order
http://www.bom.gov.au/fwo/IDS60701/IDS60701.95807.json

Data quality

Most of these data are generated automatically and are frequently updated. Quality checks on data are not normally performed. It is possible for incorrect values to appear. Refer to information at About Latest Weather Observations and please check the disclaimer before using these data.